sensor_id;sensor_type;location;lat;lon;timestamp;temperature;humidity
52044;DHT22;38053;53.100;6.078;2023-05-27T00:01:59;8.40;99.90
52044;DHT22;38053;53.100;6.078;2023-05-27T00:04:25;8.40;99.90
52044;DHT22;38053;53.100;6.078;2023-05-27T00:06:50;8.30;99.90
52044;DHT22;38053;53.100;6.078;2023-05-27T00:09:16;8.30;99.90
52044;DHT22;38053;53.100;6.078;2023-05-27T00:11:42;8.20;99.90
52044;DHT22;38053;53.100;6.078;2023-05-27T00:14:07;8.20;99.90
52044;DHT22;38053;53.100;6.078;2023-05-27T00:16:33;8.20;99.90
52044;DHT22;38053;53.100;6.078;2023-05-27T00:19:05;8.10;99.90
52044;DHT22;38053;53.100;6.078;2023-05-27T00:21:30;8.20;99.90
52044;DHT22;38053;53.100;6.078;2023-05-27T00:23:56;8.10;99.90
52044;DHT22;38053;53.100;6.078;2023-05-27T00:26:24;8.10;99.90
52044;DHT22;38053;53.100;6.078;2023-05-27T00:28:51;8.10;99.90
52044;DHT22;38053;53.100;6.078;2023-05-27T00:31:17;8.10;99.90
52044;DHT22;38053;53.100;6.078;2023-05-27T00:33:42;8.10;99.90
52044;DHT22;38053;53.100;6.078;2023-05-27T00:36:09;8.10;99.90
52044;DHT22;38053;53.100;6.078;2023-05-27T00:38:35;8.10;99.90
52044;DHT22;38053;53.100;6.078;2023-05-27T00:41:03;8.10;99.90
52044;DHT22;38053;53.100;6.078;2023-05-27T00:43:29;8.10;99.90
52044;DHT22;38053;53.100;6.078;2023-05-27T00:45:56;8.10;99.90
52044;DHT22;38053;53.100;6.078;2023-05-27T00:48:22;8.10;99.90
52044;DHT22;38053;53.100;6.078;2023-05-27T00:50:48;8.00;99.90
52044;DHT22;38053;53.100;6.078;2023-05-27T00:53:15;8.00;99.90
52044;DHT22;38053;53.100;6.078;2023-05-27T00:55:42;8.00;99.90
52044;DHT22;38053;53.100;6.078;2023-05-27T00:58:08;7.90;99.90
52044;DHT22;38053;53.100;6.078;2023-05-27T01:00:35;7.90;99.90
52044;DHT22;38053;53.100;6.078;2023-05-27T01:03:03;7.90;99.90
52044;DHT22;38053;53.100;6.078;2023-05-27T01:05:33;7.80;99.90
52044;DHT22;38053;53.100;6.078;2023-05-27T01:10:45;7.80;99.90
52044;DHT22;38053;53.100;6.078;2023-05-27T01:15:48;7.70;99.90
52044;DHT22;38053;53.100;6.078;2023-05-27T01:18:16;7.70;99.90
52044;DHT22;38053;53.100;6.078;2023-05-27T01:20:42;7.70;99.90
52044;DHT22;38053;53.100;6.078;2023-05-27T01:23:09;7.70;99.90
52044;DHT22;38053;53.100;6.078;2023-05-27T01:25:35;7.70;99.90
52044;DHT22;38053;53.100;6.078;2023-05-27T01:28:01;7.80;99.90
52044;DHT22;38053;53.100;6.078;2023-05-27T01:30:27;7.80;99.90
52044;DHT22;38053;53.100;6.078;2023-05-27T01:32:58;7.80;99.90
52044;DHT22;38053;53.100;6.078;2023-05-27T01:38:00;7.90;99.90
52044;DHT22;38053;53.100;6.078;2023-05-27T01:40:27;7.80;99.90
52044;DHT22;38053;53.100;6.078;2023-05-27T01:42:57;7.80;99.90
52044;DHT22;38053;53.100;6.078;2023-05-27T01:45:23;7.80;99.90
52044;DHT22;38053;53.100;6.078;2023-05-27T01:47:48;7.80;99.90
52044;DHT22;38053;53.100;6.078;2023-05-27T01:50:14;7.80;99.90
52044;DHT22;38053;53.100;6.078;2023-05-27T01:52:40;7.80;99.90
52044;DHT22;38053;53.100;6.078;2023-05-27T01:55:06;7.70;99.90
52044;DHT22;38053;53.100;6.078;2023-05-27T01:57:32;7.70;99.90
52044;DHT22;38053;53.100;6.078;2023-05-27T01:59:57;7.70;99.90
52044;DHT22;38053;53.100;6.078;2023-05-27T02:02:23;7.60;99.90
52044;DHT22;38053;53.100;6.078;2023-05-27T02:04:49;7.60;99.90
52044;DHT22;38053;53.100;6.078;2023-05-27T02:07:14;7.60;99.90
52044;DHT22;38053;53.100;6.078;2023-05-27T02:09:42;7.60;99.90
52044;DHT22;38053;53.100;6.078;2023-05-27T02:12:08;7.60;99.90
52044;DHT22;38053;53.100;6.078;2023-05-27T02:14:34;7.60;99.90
52044;DHT22;38053;53.100;6.078;2023-05-27T02:17:04;7.60;99.90
52044;DHT22;38053;53.100;6.078;2023-05-27T02:19:30;7.60;99.90
52044;DHT22;38053;53.100;6.078;2023-05-27T02:21:55;7.60;99.90
52044;DHT22;38053;53.100;6.078;2023-05-27T02:24:21;7.60;99.90
52044;DHT22;38053;53.100;6.078;2023-05-27T02:26:47;7.60;99.90
52044;DHT22;38053;53.100;6.078;2023-05-27T02:29:12;7.60;99.90
52044;DHT22;38053;53.100;6.078;2023-05-27T02:31:38;7.50;99.90
52044;DHT22;38053;53.100;6.078;2023-05-27T02:34:04;7.50;99.90
52044;DHT22;38053;53.100;6.078;2023-05-27T02:36:29;7.50;99.90
52044;DHT22;38053;53.100;6.078;2023-05-27T02:38:55;7.50;99.90
52044;DHT22;38053;53.100;6.078;2023-05-27T02:41:21;7.50;99.90
52044;DHT22;38053;53.100;6.078;2023-05-27T02:43:46;7.40;99.90
52044;DHT22;38053;53.100;6.078;2023-05-27T02:46:12;7.40;99.90
52044;DHT22;38053;53.100;6.078;2023-05-27T02:48:37;7.40;99.90
52044;DHT22;38053;53.100;6.078;2023-05-27T02:51:03;7.40;99.90
52044;DHT22;38053;53.100;6.078;2023-05-27T02:53:29;7.30;99.90
52044;DHT22;38053;53.100;6.078;2023-05-27T02:55:55;7.30;99.90
52044;DHT22;38053;53.100;6.078;2023-05-27T02:58:20;7.30;99.90
52044;DHT22;38053;53.100;6.078;2023-05-27T03:00:46;7.30;99.90
52044;DHT22;38053;53.100;6.078;2023-05-27T03:03:12;7.30;99.90
52044;DHT22;38053;53.100;6.078;2023-05-27T03:05:37;7.30;99.90
52044;DHT22;38053;53.100;6.078;2023-05-27T03:08:03;7.30;99.90
52044;DHT22;38053;53.100;6.078;2023-05-27T03:10:32;7.30;99.90
52044;DHT22;38053;53.100;6.078;2023-05-27T03:12:58;7.30;99.90
52044;DHT22;38053;53.100;6.078;2023-05-27T03:15:23;7.40;99.90
52044;DHT22;38053;53.100;6.078;2023-05-27T03:17:49;7.40;99.90
52044;DHT22;38053;53.100;6.078;2023-05-27T03:20:15;7.50;99.90
52044;DHT22;38053;53.100;6.078;2023-05-27T03:22:44;7.50;99.90
52044;DHT22;38053;53.100;6.078;2023-05-27T03:25:10;7.60;99.90
52044;DHT22;38053;53.100;6.078;2023-05-27T03:27:37;7.60;99.90
52044;DHT22;38053;53.100;6.078;2023-05-27T03:30:04;7.70;99.90
52044;DHT22;38053;53.100;6.078;2023-05-27T03:32:30;7.70;99.90
52044;DHT22;38053;53.100;6.078;2023-05-27T03:34:56;7.80;99.90
52044;DHT22;38053;53.100;6.078;2023-05-27T03:37:21;7.80;99.90
52044;DHT22;38053;53.100;6.078;2023-05-27T03:39:47;7.90;99.90
52044;DHT22;38053;53.100;6.078;2023-05-27T03:42:12;7.90;99.90
52044;DHT22;38053;53.100;6.078;2023-05-27T03:44:38;8.00;99.90
52044;DHT22;38053;53.100;6.078;2023-05-27T03:47:05;8.00;99.90
52044;DHT22;38053;53.100;6.078;2023-05-27T03:49:30;8.10;99.90
52044;DHT22;38053;53.100;6.078;2023-05-27T03:51:56;8.20;99.90
52044;DHT22;38053;53.100;6.078;2023-05-27T03:54:22;8.20;99.90
52044;DHT22;38053;53.100;6.078;2023-05-27T03:56:48;8.30;99.90
52044;DHT22;38053;53.100;6.078;2023-05-27T03:59:13;8.30;99.90
52044;DHT22;38053;53.100;6.078;2023-05-27T04:01:39;8.30;99.90
52044;DHT22;38053;53.100;6.078;2023-05-27T04:04:06;8.40;99.90
52044;DHT22;38053;53.100;6.078;2023-05-27T04:06:32;8.40;99.90
52044;DHT22;38053;53.100;6.078;2023-05-27T04:08:58;8.50;99.90
52044;DHT22;38053;53.100;6.078;2023-05-27T04:11:26;8.50;99.90
52044;DHT22;38053;53.100;6.078;2023-05-27T04:13:52;8.50;99.90
52044;DHT22;38053;53.100;6.078;2023-05-27T04:16:18;8.60;99.90
52044;DHT22;38053;53.100;6.078;2023-05-27T04:18:44;8.60;99.90
52044;DHT22;38053;53.100;6.078;2023-05-27T04:21:15;8.60;99.90
52044;DHT22;38053;53.100;6.078;2023-05-27T04:23:41;8.70;99.90
52044;DHT22;38053;53.100;6.078;2023-05-27T04:26:06;8.80;99.90
52044;DHT22;38053;53.100;6.078;2023-05-27T04:28:32;8.80;99.90
52044;DHT22;38053;53.100;6.078;2023-05-27T04:30:59;8.80;99.90
52044;DHT22;38053;53.100;6.078;2023-05-27T04:33:25;8.80;99.90
52044;DHT22;38053;53.100;6.078;2023-05-27T04:35:52;8.90;99.90
52044;DHT22;38053;53.100;6.078;2023-05-27T04:38:19;8.90;99.90
52044;DHT22;38053;53.100;6.078;2023-05-27T04:40:47;8.90;99.90
52044;DHT22;38053;53.100;6.078;2023-05-27T04:43:18;8.90;99.90
52044;DHT22;38053;53.100;6.078;2023-05-27T04:45:45;8.90;99.90
52044;DHT22;38053;53.100;6.078;2023-05-27T04:48:11;8.90;99.90
52044;DHT22;38053;53.100;6.078;2023-05-27T04:50:37;8.90;99.90
52044;DHT22;38053;53.100;6.078;2023-05-27T04:53:03;8.90;99.90
52044;DHT22;38053;53.100;6.078;2023-05-27T04:55:29;8.90;99.90
52044;DHT22;38053;53.100;6.078;2023-05-27T04:57:55;9.00;99.90
52044;DHT22;38053;53.100;6.078;2023-05-27T05:00:22;9.00;99.90
52044;DHT22;38053;53.100;6.078;2023-05-27T05:03:10;9.10;99.90
52044;DHT22;38053;53.100;6.078;2023-05-27T05:05:47;9.10;99.90
52044;DHT22;38053;53.100;6.078;2023-05-27T05:08:13;9.20;99.90
52044;DHT22;38053;53.100;6.078;2023-05-27T05:10:38;9.30;99.90
52044;DHT22;38053;53.100;6.078;2023-05-27T05:13:04;9.30;99.90
52044;DHT22;38053;53.100;6.078;2023-05-27T05:15:30;9.30;99.90
52044;DHT22;38053;53.100;6.078;2023-05-27T05:17:56;9.40;99.90
52044;DHT22;38053;53.100;6.078;2023-05-27T05:20:22;9.40;99.90
52044;DHT22;38053;53.100;6.078;2023-05-27T05:22:47;9.50;99.90
52044;DHT22;38053;53.100;6.078;2023-05-27T05:25:14;9.60;99.90
52044;DHT22;38053;53.100;6.078;2023-05-27T05:27:41;9.70;99.90
52044;DHT22;38053;53.100;6.078;2023-05-27T05:30:07;9.70;99.90
52044;DHT22;38053;53.100;6.078;2023-05-27T05:32:33;9.70;99.90
52044;DHT22;38053;53.100;6.078;2023-05-27T05:34:59;9.80;99.90
52044;DHT22;38053;53.100;6.078;2023-05-27T05:37:24;9.80;99.90
52044;DHT22;38053;53.100;6.078;2023-05-27T05:39:50;9.80;99.90
52044;DHT22;38053;53.100;6.078;2023-05-27T05:42:16;9.80;99.90
52044;DHT22;38053;53.100;6.078;2023-05-27T05:44:42;9.80;99.90
52044;DHT22;38053;53.100;6.078;2023-05-27T05:47:08;9.90;99.90
52044;DHT22;38053;53.100;6.078;2023-05-27T05:49:33;9.90;99.90
52044;DHT22;38053;53.100;6.078;2023-05-27T05:51:59;10.00;99.90
52044;DHT22;38053;53.100;6.078;2023-05-27T05:54:25;10.00;99.90
52044;DHT22;38053;53.100;6.078;2023-05-27T05:56:51;10.10;99.90
52044;DHT22;38053;53.100;6.078;2023-05-27T05:59:17;10.20;99.90
52044;DHT22;38053;53.100;6.078;2023-05-27T06:01:43;10.30;99.90
52044;DHT22;38053;53.100;6.078;2023-05-27T06:04:08;10.40;99.90
52044;DHT22;38053;53.100;6.078;2023-05-27T06:06:34;10.60;99.90
52044;DHT22;38053;53.100;6.078;2023-05-27T06:09:00;10.70;99.90
52044;DHT22;38053;53.100;6.078;2023-05-27T06:11:25;10.80;99.90
52044;DHT22;38053;53.100;6.078;2023-05-27T06:13:51;11.00;99.90
52044;DHT22;38053;53.100;6.078;2023-05-27T06:16:17;11.10;99.90
52044;DHT22;38053;53.100;6.078;2023-05-27T06:18:43;11.10;99.90
52044;DHT22;38053;53.100;6.078;2023-05-27T06:21:11;11.10;99.90
52044;DHT22;38053;53.100;6.078;2023-05-27T06:23:37;11.20;99.90
52044;DHT22;38053;53.100;6.078;2023-05-27T06:26:03;11.30;99.90
52044;DHT22;38053;53.100;6.078;2023-05-27T06:28:29;11.40;99.90
52044;DHT22;38053;53.100;6.078;2023-05-27T06:30:55;11.40;99.90
52044;DHT22;38053;53.100;6.078;2023-05-27T06:33:20;11.50;99.90
52044;DHT22;38053;53.100;6.078;2023-05-27T06:35:46;11.60;99.90
52044;DHT22;38053;53.100;6.078;2023-05-27T06:38:12;11.70;99.90
52044;DHT22;38053;53.100;6.078;2023-05-27T06:40:38;11.80;99.90
52044;DHT22;38053;53.100;6.078;2023-05-27T06:43:04;11.90;99.90
52044;DHT22;38053;53.100;6.078;2023-05-27T06:45:30;12.00;99.90
52044;DHT22;38053;53.100;6.078;2023-05-27T06:47:56;12.10;99.90
52044;DHT22;38053;53.100;6.078;2023-05-27T06:50:22;12.20;99.90
52044;DHT22;38053;53.100;6.078;2023-05-27T06:52:47;12.20;99.90
52044;DHT22;38053;53.100;6.078;2023-05-27T06:55:13;12.30;99.90
52044;DHT22;38053;53.100;6.078;2023-05-27T06:57:38;12.30;99.90
52044;DHT22;38053;53.100;6.078;2023-05-27T07:00:05;12.30;99.90
52044;DHT22;38053;53.100;6.078;2023-05-27T07:02:31;12.30;99.90
52044;DHT22;38053;53.100;6.078;2023-05-27T07:04:57;12.30;99.90
52044;DHT22;38053;53.100;6.078;2023-05-27T07:07:23;12.40;99.90
52044;DHT22;38053;53.100;6.078;2023-05-27T07:09:48;12.30;99.90
52044;DHT22;38053;53.100;6.078;2023-05-27T07:12:14;12.30;99.90
52044;DHT22;38053;53.100;6.078;2023-05-27T07:14:40;12.40;99.90
52044;DHT22;38053;53.100;6.078;2023-05-27T07:17:06;12.50;99.90
52044;DHT22;38053;53.100;6.078;2023-05-27T07:19:31;12.60;99.90
52044;DHT22;38053;53.100;6.078;2023-05-27T07:21:57;12.70;99.90
52044;DHT22;38053;53.100;6.078;2023-05-27T07:24:23;12.70;99.90
52044;DHT22;38053;53.100;6.078;2023-05-27T07:26:48;12.80;99.90
52044;DHT22;38053;53.100;6.078;2023-05-27T07:29:14;12.80;99.90
52044;DHT22;38053;53.100;6.078;2023-05-27T07:31:40;12.80;99.90
52044;DHT22;38053;53.100;6.078;2023-05-27T07:34:06;12.90;99.90
52044;DHT22;38053;53.100;6.078;2023-05-27T07:36:31;12.90;99.90
52044;DHT22;38053;53.100;6.078;2023-05-27T07:38:58;13.00;99.90
52044;DHT22;38053;53.100;6.078;2023-05-27T07:41:23;13.00;99.90
52044;DHT22;38053;53.100;6.078;2023-05-27T07:43:49;12.90;99.90
52044;DHT22;38053;53.100;6.078;2023-05-27T07:46:15;13.00;99.90
52044;DHT22;38053;53.100;6.078;2023-05-27T07:48:41;13.20;99.90
52044;DHT22;38053;53.100;6.078;2023-05-27T07:51:06;13.30;99.90
52044;DHT22;38053;53.100;6.078;2023-05-27T07:53:32;13.40;99.90
52044;DHT22;38053;53.100;6.078;2023-05-27T07:55:58;13.50;99.90
52044;DHT22;38053;53.100;6.078;2023-05-27T07:58:23;13.50;99.90
52044;DHT22;38053;53.100;6.078;2023-05-27T08:00:49;13.70;99.90
52044;DHT22;38053;53.100;6.078;2023-05-27T08:03:15;13.80;99.90
52044;DHT22;38053;53.100;6.078;2023-05-27T08:05:41;13.90;99.90
52044;DHT22;38053;53.100;6.078;2023-05-27T08:08:07;14.00;99.90
52044;DHT22;38053;53.100;6.078;2023-05-27T08:10:32;13.90;99.90
52044;DHT22;38053;53.100;6.078;2023-05-27T08:12:58;13.90;99.90
52044;DHT22;38053;53.100;6.078;2023-05-27T08:15:24;14.00;99.90
52044;DHT22;38053;53.100;6.078;2023-05-27T08:17:50;14.10;99.90
52044;DHT22;38053;53.100;6.078;2023-05-27T08:20:16;14.20;99.90
52044;DHT22;38053;53.100;6.078;2023-05-27T08:22:42;14.30;99.90
52044;DHT22;38053;53.100;6.078;2023-05-27T08:25:08;14.40;99.90
52044;DHT22;38053;53.100;6.078;2023-05-27T08:30:13;14.60;99.90
52044;DHT22;38053;53.100;6.078;2023-05-27T08:32:42;14.60;99.90
52044;DHT22;38053;53.100;6.078;2023-05-27T08:35:09;14.80;99.90
52044;DHT22;38053;53.100;6.078;2023-05-27T08:37:35;15.00;99.90
52044;DHT22;38053;53.100;6.078;2023-05-27T08:40:02;15.20;99.90
52044;DHT22;38053;53.100;6.078;2023-05-27T08:42:30;15.30;99.90
52044;DHT22;38053;53.100;6.078;2023-05-27T08:44:56;15.10;99.90
52044;DHT22;38053;53.100;6.078;2023-05-27T08:47:22;15.10;99.90
52044;DHT22;38053;53.100;6.078;2023-05-27T08:49:47;15.00;99.90
52044;DHT22;38053;53.100;6.078;2023-05-27T08:52:18;15.10;99.90
52044;DHT22;38053;53.100;6.078;2023-05-27T08:54:46;15.30;99.90
52044;DHT22;38053;53.100;6.078;2023-05-27T08:57:13;15.30;99.90
52044;DHT22;38053;53.100;6.078;2023-05-27T08:59:41;15.40;99.90
52044;DHT22;38053;53.100;6.078;2023-05-27T09:02:11;15.50;99.90
52044;DHT22;38053;53.100;6.078;2023-05-27T09:04:39;15.60;99.90
52044;DHT22;38053;53.100;6.078;2023-05-27T09:07:07;15.80;99.90
52044;DHT22;38053;53.100;6.078;2023-05-27T09:09:34;16.00;99.90
52044;DHT22;38053;53.100;6.078;2023-05-27T09:12:03;16.10;99.90
52044;DHT22;38053;53.100;6.078;2023-05-27T09:14:32;16.20;99.90
52044;DHT22;38053;53.100;6.078;2023-05-27T09:17:05;16.20;99.90
52044;DHT22;38053;53.100;6.078;2023-05-27T09:19:33;16.30;99.90
52044;DHT22;38053;53.100;6.078;2023-05-27T09:21:59;16.50;99.90
52044;DHT22;38053;53.100;6.078;2023-05-27T09:24:27;16.30;99.90
52044;DHT22;38053;53.100;6.078;2023-05-27T09:26:56;16.50;99.90
52044;DHT22;38053;53.100;6.078;2023-05-27T09:29:25;16.60;99.90
52044;DHT22;38053;53.100;6.078;2023-05-27T09:31:56;16.70;99.90
52044;DHT22;38053;53.100;6.078;2023-05-27T09:34:22;16.80;99.90
52044;DHT22;38053;53.100;6.078;2023-05-27T09:36:49;16.90;99.90
52044;DHT22;38053;53.100;6.078;2023-05-27T09:39:19;17.00;99.90
52044;DHT22;38053;53.100;6.078;2023-05-27T09:41:56;17.20;99.90
52044;DHT22;38053;53.100;6.078;2023-05-27T09:44:29;17.30;99.90
52044;DHT22;38053;53.100;6.078;2023-05-27T09:46:57;17.50;99.90
52044;DHT22;38053;53.100;6.078;2023-05-27T09:49:25;17.60;99.90
52044;DHT22;38053;53.100;6.078;2023-05-27T09:51:53;17.80;99.90
52044;DHT22;38053;53.100;6.078;2023-05-27T09:54:20;17.90;99.90
52044;DHT22;38053;53.100;6.078;2023-05-27T09:56:47;17.90;99.90
52044;DHT22;38053;53.100;6.078;2023-05-27T09:59:14;18.00;99.90
52044;DHT22;38053;53.100;6.078;2023-05-27T10:01:40;18.00;99.90
52044;DHT22;38053;53.100;6.078;2023-05-27T10:04:09;18.20;99.90
52044;DHT22;38053;53.100;6.078;2023-05-27T10:06:37;18.30;99.90
52044;DHT22;38053;53.100;6.078;2023-05-27T10:09:03;18.30;99.90
52044;DHT22;38053;53.100;6.078;2023-05-27T10:11:33;18.40;99.90
52044;DHT22;38053;53.100;6.078;2023-05-27T10:14:01;18.60;99.90
52044;DHT22;38053;53.100;6.078;2023-05-27T10:16:28;18.60;99.90
52044;DHT22;38053;53.100;6.078;2023-05-27T10:18:55;18.90;99.90
52044;DHT22;38053;53.100;6.078;2023-05-27T10:21:22;19.00;99.90
52044;DHT22;38053;53.100;6.078;2023-05-27T10:24:02;19.20;99.90
52044;DHT22;38053;53.100;6.078;2023-05-27T10:26:44;19.20;99.90
52044;DHT22;38053;53.100;6.078;2023-05-27T10:29:11;19.30;99.90
52044;DHT22;38053;53.100;6.078;2023-05-27T10:31:47;19.50;99.90
52044;DHT22;38053;53.100;6.078;2023-05-27T10:34:13;19.60;99.90
52044;DHT22;38053;53.100;6.078;2023-05-27T10:36:39;19.60;99.90
52044;DHT22;38053;53.100;6.078;2023-05-27T10:39:18;19.70;99.90
52044;DHT22;38053;53.100;6.078;2023-05-27T10:41:49;19.90;99.90
52044;DHT22;38053;53.100;6.078;2023-05-27T10:47:11;20.00;99.90
52044;DHT22;38053;53.100;6.078;2023-05-27T10:49:38;20.10;99.90
52044;DHT22;38053;53.100;6.078;2023-05-27T10:52:09;20.30;99.90
52044;DHT22;38053;53.100;6.078;2023-05-27T10:54:37;20.30;99.90
52044;DHT22;38053;53.100;6.078;2023-05-27T10:57:03;20.50;99.90
52044;DHT22;38053;53.100;6.078;2023-05-27T10:59:53;20.60;99.90
52044;DHT22;38053;53.100;6.078;2023-05-27T11:02:20;20.70;99.90
52044;DHT22;38053;53.100;6.078;2023-05-27T11:04:48;20.80;99.90
52044;DHT22;38053;53.100;6.078;2023-05-27T11:07:18;20.80;99.90
52044;DHT22;38053;53.100;6.078;2023-05-27T11:09:51;20.80;99.90
52044;DHT22;38053;53.100;6.078;2023-05-27T11:12:18;20.90;99.90
52044;DHT22;38053;53.100;6.078;2023-05-27T11:14:46;20.90;99.90
52044;DHT22;38053;53.100;6.078;2023-05-27T11:17:12;20.80;99.90
52044;DHT22;38053;53.100;6.078;2023-05-27T11:19:39;21.00;99.90
52044;DHT22;38053;53.100;6.078;2023-05-27T11:22:07;21.00;99.90
52044;DHT22;38053;53.100;6.078;2023-05-27T11:24:32;21.20;99.90
52044;DHT22;38053;53.100;6.078;2023-05-27T11:26:58;21.30;99.90
52044;DHT22;38053;53.100;6.078;2023-05-27T11:29:24;21.20;98.90
52044;DHT22;38053;53.100;6.078;2023-05-27T11:31:53;21.50;99.40
52044;DHT22;38053;53.100;6.078;2023-05-27T11:34:19;21.50;99.90
52044;DHT22;38053;53.100;6.078;2023-05-27T11:36:49;21.70;99.90
52044;DHT22;38053;53.100;6.078;2023-05-27T11:39:15;21.90;99.90
52044;DHT22;38053;53.100;6.078;2023-05-27T11:41:52;22.10;99.90
52044;DHT22;38053;53.100;6.078;2023-05-27T11:44:19;22.20;98.60
52044;DHT22;38053;53.100;6.078;2023-05-27T11:46:47;22.20;97.40
52044;DHT22;38053;53.100;6.078;2023-05-27T11:49:14;22.10;96.70
52044;DHT22;38053;53.100;6.078;2023-05-27T11:51:41;22.20;97.00
52044;DHT22;38053;53.100;6.078;2023-05-27T11:54:16;22.30;97.70
52044;DHT22;38053;53.100;6.078;2023-05-27T11:56:42;22.50;97.70
52044;DHT22;38053;53.100;6.078;2023-05-27T11:59:08;22.80;97.00
52044;DHT22;38053;53.100;6.078;2023-05-27T12:01:33;22.90;97.30
52044;DHT22;38053;53.100;6.078;2023-05-27T12:03:59;23.00;96.60
52044;DHT22;38053;53.100;6.078;2023-05-27T12:06:25;23.10;96.00
52044;DHT22;38053;53.100;6.078;2023-05-27T12:08:51;23.50;96.30
52044;DHT22;38053;53.100;6.078;2023-05-27T12:11:16;23.80;96.30
52044;DHT22;38053;53.100;6.078;2023-05-27T12:13:42;23.80;95.40
52044;DHT22;38053;53.100;6.078;2023-05-27T12:16:09;24.20;95.40
52044;DHT22;38053;53.100;6.078;2023-05-27T12:18:35;24.40;94.90
52044;DHT22;38053;53.100;6.078;2023-05-27T12:21:01;24.60;95.40
52044;DHT22;38053;53.100;6.078;2023-05-27T12:23:26;24.40;94.80
52044;DHT22;38053;53.100;6.078;2023-05-27T12:25:52;24.30;93.70
52044;DHT22;38053;53.100;6.078;2023-05-27T12:28:18;24.30;93.30
52044;DHT22;38053;53.100;6.078;2023-05-27T12:30:43;24.60;93.50
52044;DHT22;38053;53.100;6.078;2023-05-27T12:33:09;24.90;93.10
52044;DHT22;38053;53.100;6.078;2023-05-27T12:35:35;25.10;92.60
52044;DHT22;38053;53.100;6.078;2023-05-27T12:38:01;25.10;93.30
52044;DHT22;38053;53.100;6.078;2023-05-27T12:40:27;24.90;92.00
52044;DHT22;38053;53.100;6.078;2023-05-27T12:42:52;25.20;92.00
52044;DHT22;38053;53.100;6.078;2023-05-27T12:45:18;25.40;91.70
52044;DHT22;38053;53.100;6.078;2023-05-27T12:47:48;25.60;91.80
52044;DHT22;38053;53.100;6.078;2023-05-27T12:50:13;25.90;91.30
52044;DHT22;38053;53.100;6.078;2023-05-27T12:52:39;26.00;91.10
52044;DHT22;38053;53.100;6.078;2023-05-27T12:55:14;26.10;90.90
52044;DHT22;38053;53.100;6.078;2023-05-27T12:57:40;25.80;90.50
52044;DHT22;38053;53.100;6.078;2023-05-27T13:00:06;25.80;89.70
52044;DHT22;38053;53.100;6.078;2023-05-27T13:02:32;25.90;90.80
52044;DHT22;38053;53.100;6.078;2023-05-27T13:04:58;26.00;91.00
52044;DHT22;38053;53.100;6.078;2023-05-27T13:07:26;26.10;88.40
52044;DHT22;38053;53.100;6.078;2023-05-27T13:09:52;26.40;90.00
52044;DHT22;38053;53.100;6.078;2023-05-27T13:12:18;26.70;89.60
52044;DHT22;38053;53.100;6.078;2023-05-27T13:14:45;26.90;89.00
52044;DHT22;38053;53.100;6.078;2023-05-27T13:17:10;26.90;87.90
52044;DHT22;38053;53.100;6.078;2023-05-27T13:19:36;25.90;84.30
52044;DHT22;38053;53.100;6.078;2023-05-27T13:22:02;26.60;85.80
52044;DHT22;38053;53.100;6.078;2023-05-27T13:24:28;26.90;86.00
52044;DHT22;38053;53.100;6.078;2023-05-27T13:26:54;26.70;86.40
52044;DHT22;38053;53.100;6.078;2023-05-27T13:29:20;27.00;87.50
52044;DHT22;38053;53.100;6.078;2023-05-27T13:31:46;26.90;86.60
52044;DHT22;38053;53.100;6.078;2023-05-27T13:34:11;26.90;85.60
52044;DHT22;38053;53.100;6.078;2023-05-27T13:36:38;27.00;84.40
52044;DHT22;38053;53.100;6.078;2023-05-27T13:39:03;26.80;84.00
52044;DHT22;38053;53.100;6.078;2023-05-27T13:41:30;27.00;84.10
52044;DHT22;38053;53.100;6.078;2023-05-27T13:43:55;27.10;84.50
52044;DHT22;38053;53.100;6.078;2023-05-27T13:46:21;27.00;83.40
52044;DHT22;38053;53.100;6.078;2023-05-27T13:48:47;27.10;83.60
52044;DHT22;38053;53.100;6.078;2023-05-27T13:51:12;26.80;84.10
52044;DHT22;38053;53.100;6.078;2023-05-27T13:53:38;26.90;83.90
52044;DHT22;38053;53.100;6.078;2023-05-27T13:56:04;27.30;83.90
52044;DHT22;38053;53.100;6.078;2023-05-27T13:58:30;27.20;82.90
52044;DHT22;38053;53.100;6.078;2023-05-27T14:00:55;26.90;84.40
52044;DHT22;38053;53.100;6.078;2023-05-27T14:03:21;26.50;85.50
52044;DHT22;38053;53.100;6.078;2023-05-27T14:05:48;25.90;84.70
52044;DHT22;38053;53.100;6.078;2023-05-27T14:08:15;25.60;85.70
52044;DHT22;38053;53.100;6.078;2023-05-27T14:10:41;25.50;86.40
52044;DHT22;38053;53.100;6.078;2023-05-27T14:13:07;25.50;87.50
52044;DHT22;38053;53.100;6.078;2023-05-27T14:15:33;25.50;86.50
52044;DHT22;38053;53.100;6.078;2023-05-27T14:17:58;25.60;84.30
52044;DHT22;38053;53.100;6.078;2023-05-27T14:20:30;25.10;85.90
52044;DHT22;38053;53.100;6.078;2023-05-27T14:22:56;25.20;86.80
52044;DHT22;38053;53.100;6.078;2023-05-27T14:25:24;25.10;85.00
52044;DHT22;38053;53.100;6.078;2023-05-27T14:27:49;25.60;85.90
52044;DHT22;38053;53.100;6.078;2023-05-27T14:30:15;25.40;86.20
52044;DHT22;38053;53.100;6.078;2023-05-27T14:32:41;25.10;90.10
52044;DHT22;38053;53.100;6.078;2023-05-27T14:35:07;25.10;88.70
52044;DHT22;38053;53.100;6.078;2023-05-27T14:37:33;24.50;91.10
52044;DHT22;38053;53.100;6.078;2023-05-27T14:39:59;24.50;91.60
52044;DHT22;38053;53.100;6.078;2023-05-27T14:42:26;24.30;90.20
52044;DHT22;38053;53.100;6.078;2023-05-27T14:44:52;24.50;90.30
52044;DHT22;38053;53.100;6.078;2023-05-27T14:47:17;24.90;91.20
52044;DHT22;38053;53.100;6.078;2023-05-27T14:49:43;24.70;91.70
52044;DHT22;38053;53.100;6.078;2023-05-27T14:52:09;24.30;92.20
52044;DHT22;38053;53.100;6.078;2023-05-27T14:54:35;24.40;92.40
52044;DHT22;38053;53.100;6.078;2023-05-27T14:57:00;24.30;92.40
52044;DHT22;38053;53.100;6.078;2023-05-27T14:59:26;24.20;92.30
52044;DHT22;38053;53.100;6.078;2023-05-27T15:01:52;24.10;92.80
52044;DHT22;38053;53.100;6.078;2023-05-27T15:04:17;23.80;93.20
52044;DHT22;38053;53.100;6.078;2023-05-27T15:06:43;23.80;93.30
52044;DHT22;38053;53.100;6.078;2023-05-27T15:11:44;23.60;93.70
52044;DHT22;38053;53.100;6.078;2023-05-27T15:14:10;23.40;94.10
52044;DHT22;38053;53.100;6.078;2023-05-27T15:16:35;23.20;94.40
52044;DHT22;38053;53.100;6.078;2023-05-27T15:19:01;23.00;94.60
52044;DHT22;38053;53.100;6.078;2023-05-27T15:21:27;22.80;94.80
52044;DHT22;38053;53.100;6.078;2023-05-27T15:23:52;22.70;95.00
52044;DHT22;38053;53.100;6.078;2023-05-27T15:26:18;22.50;95.30
52044;DHT22;38053;53.100;6.078;2023-05-27T15:28:44;22.60;95.60
52044;DHT22;38053;53.100;6.078;2023-05-27T15:31:09;22.60;95.40
52044;DHT22;38053;53.100;6.078;2023-05-27T15:33:35;22.60;95.50
52044;DHT22;38053;53.100;6.078;2023-05-27T15:36:01;22.90;95.50
52044;DHT22;38053;53.100;6.078;2023-05-27T15:38:29;23.60;94.70
52044;DHT22;38053;53.100;6.078;2023-05-27T15:40:54;24.10;94.10
52044;DHT22;38053;53.100;6.078;2023-05-27T15:43:20;24.20;93.70
52044;DHT22;38053;53.100;6.078;2023-05-27T15:45:46;24.40;93.40
52044;DHT22;38053;53.100;6.078;2023-05-27T15:48:12;24.70;93.10
52044;DHT22;38053;53.100;6.078;2023-05-27T15:50:39;24.90;92.80